sensor_id;sensor_type;location;lat;lon;timestamp;temperature;humidity
16825;DHT22;8529;48.108;-1.706;2022-09-25T00:00:53;15.20;99.90
16825;DHT22;8529;48.108;-1.706;2022-09-25T00:03:24;15.20;99.90
16825;DHT22;8529;48.108;-1.706;2022-09-25T00:05:51;15.20;99.90
16825;DHT22;8529;48.108;-1.706;2022-09-25T00:08:20;15.20;99.90
16825;DHT22;8529;48.108;-1.706;2022-09-25T00:10:48;15.20;99.90
16825;DHT22;8529;48.108;-1.706;2022-09-25T00:13:17;15.20;99.90
16825;DHT22;8529;48.108;-1.706;2022-09-25T00:15:48;15.20;99.90
16825;DHT22;8529;48.108;-1.706;2022-09-25T00:18:17;15.10;99.90
16825;DHT22;8529;48.108;-1.706;2022-09-25T00:21:07;15.10;99.90
16825;DHT22;8529;48.108;-1.706;2022-09-25T00:23:34;15.20;99.90
16825;DHT22;8529;48.108;-1.706;2022-09-25T00:26:02;15.20;99.90
16825;DHT22;8529;48.108;-1.706;2022-09-25T00:28:30;15.20;99.90
16825;DHT22;8529;48.108;-1.706;2022-09-25T00:30:57;15.20;99.90
16825;DHT22;8529;48.108;-1.706;2022-09-25T00:33:24;15.10;99.90
16825;DHT22;8529;48.108;-1.706;2022-09-25T00:35:53;15.10;99.90
16825;DHT22;8529;48.108;-1.706;2022-09-25T00:38:21;15.10;99.90
16825;DHT22;8529;48.108;-1.706;2022-09-25T00:40:48;15.10;99.90
16825;DHT22;8529;48.108;-1.706;2022-09-25T00:43:33;15.10;99.90
16825;DHT22;8529;48.108;-1.706;2022-09-25T00:46:04;15.10;99.90
16825;DHT22;8529;48.108;-1.706;2022-09-25T00:48:31;15.10;99.90
16825;DHT22;8529;48.108;-1.706;2022-09-25T00:50:59;15.10;99.90
16825;DHT22;8529;48.108;-1.706;2022-09-25T00:53:30;15.10;99.90
16825;DHT22;8529;48.108;-1.706;2022-09-25T00:56:00;15.00;99.90
16825;DHT22;8529;48.108;-1.706;2022-09-25T00:58:30;15.00;99.90
16825;DHT22;8529;48.108;-1.706;2022-09-25T01:00:59;15.00;99.90
16825;DHT22;8529;48.108;-1.706;2022-09-25T01:03:26;15.00;99.90
16825;DHT22;8529;48.108;-1.706;2022-09-25T01:05:53;15.00;99.90
16825;DHT22;8529;48.108;-1.706;2022-09-25T01:08:25;15.00;99.90
16825;DHT22;8529;48.108;-1.706;2022-09-25T01:10:54;15.00;99.90
16825;DHT22;8529;48.108;-1.706;2022-09-25T01:13:21;15.00;99.90
16825;DHT22;8529;48.108;-1.706;2022-09-25T01:15:54;15.00;99.90
16825;DHT22;8529;48.108;-1.706;2022-09-25T01:18:33;15.00;99.90
16825;DHT22;8529;48.108;-1.706;2022-09-25T01:21:23;15.00;99.90
16825;DHT22;8529;48.108;-1.706;2022-09-25T01:24:17;15.00;99.90
16825;DHT22;8529;48.108;-1.706;2022-09-25T01:27:11;14.90;99.90
16825;DHT22;8529;48.108;-1.706;2022-09-25T01:29:46;14.90;99.90
16825;DHT22;8529;48.108;-1.706;2022-09-25T01:32:19;14.90;99.90
16825;DHT22;8529;48.108;-1.706;2022-09-25T01:34:52;14.90;99.90
16825;DHT22;8529;48.108;-1.706;2022-09-25T01:37:23;14.90;99.90
16825;DHT22;8529;48.108;-1.706;2022-09-25T01:39:58;14.90;99.90
16825;DHT22;8529;48.108;-1.706;2022-09-25T01:42:28;14.90;99.90
16825;DHT22;8529;48.108;-1.706;2022-09-25T01:45:01;14.90;99.90
16825;DHT22;8529;48.108;-1.706;2022-09-25T01:47:30;14.90;99.90
16825;DHT22;8529;48.108;-1.706;2022-09-25T01:50:01;14.90;99.90
16825;DHT22;8529;48.108;-1.706;2022-09-25T01:52:32;14.90;99.90
16825;DHT22;8529;48.108;-1.706;2022-09-25T01:55:07;14.90;99.90
16825;DHT22;8529;48.108;-1.706;2022-09-25T01:57:39;14.90;99.90
16825;DHT22;8529;48.108;-1.706;2022-09-25T02:00:11;14.80;99.90
16825;DHT22;8529;48.108;-1.706;2022-09-25T02:02:41;14.80;99.90
16825;DHT22;8529;48.108;-1.706;2022-09-25T02:05:13;14.80;99.90
16825;DHT22;8529;48.108;-1.706;2022-09-25T02:07:44;14.80;99.90
16825;DHT22;8529;48.108;-1.706;2022-09-25T02:10:15;14.80;99.90
16825;DHT22;8529;48.108;-1.706;2022-09-25T02:12:47;14.80;99.90
16825;DHT22;8529;48.108;-1.706;2022-09-25T02:15:20;14.80;99.90
16825;DHT22;8529;48.108;-1.706;2022-09-25T02:17:53;14.70;99.90
16825;DHT22;8529;48.108;-1.706;2022-09-25T02:20:39;14.70;99.90
16825;DHT22;8529;48.108;-1.706;2022-09-25T02:23:21;14.70;99.90
16825;DHT22;8529;48.108;-1.706;2022-09-25T02:25:55;14.70;99.90
16825;DHT22;8529;48.108;-1.706;2022-09-25T02:28:26;14.70;99.90
16825;DHT22;8529;48.108;-1.706;2022-09-25T02:30:55;14.80;99.90
16825;DHT22;8529;48.108;-1.706;2022-09-25T02:33:24;14.70;99.90
16825;DHT22;8529;48.108;-1.706;2022-09-25T02:35:51;14.70;99.90
16825;DHT22;8529;48.108;-1.706;2022-09-25T02:38:18;14.70;99.90
16825;DHT22;8529;48.108;-1.706;2022-09-25T02:40:48;14.70;99.90
16825;DHT22;8529;48.108;-1.706;2022-09-25T02:43:24;14.70;99.90
16825;DHT22;8529;48.108;-1.706;2022-09-25T02:46:01;14.70;99.90
16825;DHT22;8529;48.108;-1.706;2022-09-25T02:48:36;14.70;99.90
16825;DHT22;8529;48.108;-1.706;2022-09-25T02:51:11;14.70;99.90
16825;DHT22;8529;48.108;-1.706;2022-09-25T02:53:46;14.70;99.90
16825;DHT22;8529;48.108;-1.706;2022-09-25T02:56:21;14.70;99.90
16825;DHT22;8529;48.108;-1.706;2022-09-25T02:58:51;14.70;99.90
16825;DHT22;8529;48.108;-1.706;2022-09-25T03:01:23;14.70;99.90
16825;DHT22;8529;48.108;-1.706;2022-09-25T03:03:55;14.70;99.90
16825;DHT22;8529;48.108;-1.706;2022-09-25T03:06:24;14.70;99.90
16825;DHT22;8529;48.108;-1.706;2022-09-25T03:08:53;14.70;99.90
16825;DHT22;8529;48.108;-1.706;2022-09-25T03:11:22;14.70;99.90
16825;DHT22;8529;48.108;-1.706;2022-09-25T03:13:55;14.70;99.90
16825;DHT22;8529;48.108;-1.706;2022-09-25T03:16:30;14.70;99.90
16825;DHT22;8529;48.108;-1.706;2022-09-25T03:18:59;14.70;99.90
16825;DHT22;8529;48.108;-1.706;2022-09-25T03:21:25;14.70;99.90
16825;DHT22;8529;48.108;-1.706;2022-09-25T03:23:52;14.70;99.90
16825;DHT22;8529;48.108;-1.706;2022-09-25T03:26:21;14.70;99.90
16825;DHT22;8529;48.108;-1.706;2022-09-25T03:28:48;14.70;99.90
16825;DHT22;8529;48.108;-1.706;2022-09-25T03:31:15;14.70;99.90
16825;DHT22;8529;48.108;-1.706;2022-09-25T03:33:44;14.70;99.90
16825;DHT22;8529;48.108;-1.706;2022-09-25T03:36:13;14.70;99.90
16825;DHT22;8529;48.108;-1.706;2022-09-25T03:38:41;14.70;99.90
16825;DHT22;8529;48.108;-1.706;2022-09-25T03:41:09;14.70;99.90
16825;DHT22;8529;48.108;-1.706;2022-09-25T03:43:38;14.70;99.90
16825;DHT22;8529;48.108;-1.706;2022-09-25T03:46:07;14.70;99.90
16825;DHT22;8529;48.108;-1.706;2022-09-25T03:48:34;14.70;99.90
16825;DHT22;8529;48.108;-1.706;2022-09-25T03:51:03;14.70;99.90
16825;DHT22;8529;48.108;-1.706;2022-09-25T03:53:31;14.70;99.90
16825;DHT22;8529;48.108;-1.706;2022-09-25T03:55:59;14.70;99.90
16825;DHT22;8529;48.108;-1.706;2022-09-25T03:58:26;14.70;99.90
16825;DHT22;8529;48.108;-1.706;2022-09-25T04:00:54;14.70;99.90
16825;DHT22;8529;48.108;-1.706;2022-09-25T04:03:22;14.70;99.90
16825;DHT22;8529;48.108;-1.706;2022-09-25T04:05:49;14.60;99.90
16825;DHT22;8529;48.108;-1.706;2022-09-25T04:08:17;14.60;99.90
16825;DHT22;8529;48.108;-1.706;2022-09-25T04:10:44;14.60;99.90
16825;DHT22;8529;48.108;-1.706;2022-09-25T04:13:12;14.70;99.90
16825;DHT22;8529;48.108;-1.706;2022-09-25T04:15:40;14.70;99.90
16825;DHT22;8529;48.108;-1.706;2022-09-25T04:18:08;14.70;99.90
16825;DHT22;8529;48.108;-1.706;2022-09-25T04:20:36;14.60;99.90
16825;DHT22;8529;48.108;-1.706;2022-09-25T04:23:03;14.60;99.90
16825;DHT22;8529;48.108;-1.706;2022-09-25T04:25:31;14.70;99.90
16825;DHT22;8529;48.108;-1.706;2022-09-25T04:27:58;14.70;99.90
16825;DHT22;8529;48.108;-1.706;2022-09-25T04:30:27;14.70;99.90
16825;DHT22;8529;48.108;-1.706;2022-09-25T04:32:54;14.60;99.90
16825;DHT22;8529;48.108;-1.706;2022-09-25T04:35:47;14.60;99.90
16825;DHT22;8529;48.108;-1.706;2022-09-25T04:38:14;14.60;99.90
16825;DHT22;8529;48.108;-1.706;2022-09-25T04:40:43;14.70;99.90
16825;DHT22;8529;48.108;-1.706;2022-09-25T04:43:10;14.60;99.90
16825;DHT22;8529;48.108;-1.706;2022-09-25T04:45:37;14.60;99.90
16825;DHT22;8529;48.108;-1.706;2022-09-25T04:48:05;14.60;99.90
16825;DHT22;8529;48.108;-1.706;2022-09-25T04:50:32;14.60;99.90
16825;DHT22;8529;48.108;-1.706;2022-09-25T04:53:00;14.60;99.90
16825;DHT22;8529;48.108;-1.706;2022-09-25T04:55:27;14.60;99.90
16825;DHT22;8529;48.108;-1.706;2022-09-25T04:57:57;14.60;99.90
16825;DHT22;8529;48.108;-1.706;2022-09-25T05:00:27;14.60;99.90
16825;DHT22;8529;48.108;-1.706;2022-09-25T05:02:54;14.60;99.90
16825;DHT22;8529;48.108;-1.706;2022-09-25T05:05:21;14.60;99.90
16825;DHT22;8529;48.108;-1.706;2022-09-25T05:07:52;14.60;99.90
16825;DHT22;8529;48.108;-1.706;2022-09-25T05:10:19;14.60;99.90
16825;DHT22;8529;48.108;-1.706;2022-09-25T05:12:46;14.60;99.90
16825;DHT22;8529;48.108;-1.706;2022-09-25T05:15:15;14.50;99.90
16825;DHT22;8529;48.108;-1.706;2022-09-25T05:17:42;14.50;99.90
16825;DHT22;8529;48.108;-1.706;2022-09-25T05:20:09;14.50;99.90
16825;DHT22;8529;48.108;-1.706;2022-09-25T05:22:36;14.50;99.90
16825;DHT22;8529;48.108;-1.706;2022-09-25T05:25:04;14.50;99.90
16825;DHT22;8529;48.108;-1.706;2022-09-25T05:27:32;14.50;99.90
16825;DHT22;8529;48.108;-1.706;2022-09-25T05:29:59;14.50;99.90
16825;DHT22;8529;48.108;-1.706;2022-09-25T05:32:28;14.50;99.90
16825;DHT22;8529;48.108;-1.706;2022-09-25T05:34:55;14.50;99.90
16825;DHT22;8529;48.108;-1.706;2022-09-25T05:37:22;14.50;99.90
16825;DHT22;8529;48.108;-1.706;2022-09-25T05:39:49;14.50;99.90
16825;DHT22;8529;48.108;-1.706;2022-09-25T05:42:16;14.50;99.90
16825;DHT22;8529;48.108;-1.706;2022-09-25T05:44:44;14.50;99.90
16825;DHT22;8529;48.108;-1.706;2022-09-25T05:47:11;14.50;99.90
16825;DHT22;8529;48.108;-1.706;2022-09-25T05:49:39;14.50;99.90
16825;DHT22;8529;48.108;-1.706;2022-09-25T05:52:06;14.40;99.90
16825;DHT22;8529;48.108;-1.706;2022-09-25T05:54:33;14.40;99.90
16825;DHT22;8529;48.108;-1.706;2022-09-25T05:57:00;14.40;99.90
16825;DHT22;8529;48.108;-1.706;2022-09-25T05:59:27;14.40;99.90
16825;DHT22;8529;48.108;-1.706;2022-09-25T06:01:54;14.40;99.90
16825;DHT22;8529;48.108;-1.706;2022-09-25T06:04:21;14.40;99.90
16825;DHT22;8529;48.108;-1.706;2022-09-25T06:06:49;14.40;99.90
16825;DHT22;8529;48.108;-1.706;2022-09-25T06:09:17;14.40;99.90
16825;DHT22;8529;48.108;-1.706;2022-09-25T06:11:44;14.40;99.90
16825;DHT22;8529;48.108;-1.706;2022-09-25T06:14:12;14.50;99.90
16825;DHT22;8529;48.108;-1.706;2022-09-25T06:16:39;14.50;99.90
16825;DHT22;8529;48.108;-1.706;2022-09-25T06:19:06;14.50;99.90
16825;DHT22;8529;48.108;-1.706;2022-09-25T06:21:33;14.40;99.90
16825;DHT22;8529;48.108;-1.706;2022-09-25T06:24:01;14.50;99.90
16825;DHT22;8529;48.108;-1.706;2022-09-25T06:26:28;14.50;99.90
16825;DHT22;8529;48.108;-1.706;2022-09-25T06:28:56;14.50;99.90
16825;DHT22;8529;48.108;-1.706;2022-09-25T06:31:24;14.50;99.90
16825;DHT22;8529;48.108;-1.706;2022-09-25T06:33:51;14.50;99.90
16825;DHT22;8529;48.108;-1.706;2022-09-25T06:36:18;14.50;99.90
16825;DHT22;8529;48.108;-1.706;2022-09-25T06:38:45;14.50;99.90
16825;DHT22;8529;48.108;-1.706;2022-09-25T06:41:14;14.60;99.90
16825;DHT22;8529;48.108;-1.706;2022-09-25T06:43:41;14.60;99.90
16825;DHT22;8529;48.108;-1.706;2022-09-25T06:46:08;14.60;99.90
16825;DHT22;8529;48.108;-1.706;2022-09-25T06:48:35;14.60;99.90
16825;DHT22;8529;48.108;-1.706;2022-09-25T06:51:02;14.60;99.90
16825;DHT22;8529;48.108;-1.706;2022-09-25T06:53:29;14.60;99.90
16825;DHT22;8529;48.108;-1.706;2022-09-25T06:55:57;14.60;99.90
16825;DHT22;8529;48.108;-1.706;2022-09-25T06:58:26;14.60;99.90
16825;DHT22;8529;48.108;-1.706;2022-09-25T07:00:55;14.70;99.90
16825;DHT22;8529;48.108;-1.706;2022-09-25T07:03:22;14.70;99.90
16825;DHT22;8529;48.108;-1.706;2022-09-25T07:06:08;14.70;99.90
16825;DHT22;8529;48.108;-1.706;2022-09-25T07:08:36;14.70;99.90
16825;DHT22;8529;48.108;-1.706;2022-09-25T07:11:03;14.70;99.90
16825;DHT22;8529;48.108;-1.706;2022-09-25T07:13:33;14.70;99.90
16825;DHT22;8529;48.108;-1.706;2022-09-25T07:16:01;14.70;99.90
16825;DHT22;8529;48.108;-1.706;2022-09-25T07:18:29;14.80;99.90
16825;DHT22;8529;48.108;-1.706;2022-09-25T07:20:59;14.80;99.90
16825;DHT22;8529;48.108;-1.706;2022-09-25T07:23:26;14.80;99.90
16825;DHT22;8529;48.108;-1.706;2022-09-25T07:25:56;14.90;99.90
16825;DHT22;8529;48.108;-1.706;2022-09-25T07:28:23;14.90;99.90
16825;DHT22;8529;48.108;-1.706;2022-09-25T07:30:52;14.90;99.90
16825;DHT22;8529;48.108;-1.706;2022-09-25T07:33:19;14.90;99.90
16825;DHT22;8529;48.108;-1.706;2022-09-25T07:35:49;15.00;99.90
16825;DHT22;8529;48.108;-1.706;2022-09-25T07:38:17;15.00;99.90
16825;DHT22;8529;48.108;-1.706;2022-09-25T07:40:44;15.10;99.90
16825;DHT22;8529;48.108;-1.706;2022-09-25T07:43:12;15.10;99.90
16825;DHT22;8529;48.108;-1.706;2022-09-25T07:45:39;15.20;99.90
16825;DHT22;8529;48.108;-1.706;2022-09-25T07:48:08;15.20;99.90
16825;DHT22;8529;48.108;-1.706;2022-09-25T07:50:35;15.30;99.90
16825;DHT22;8529;48.108;-1.706;2022-09-25T07:53:01;15.30;99.90
16825;DHT22;8529;48.108;-1.706;2022-09-25T07:55:28;15.30;99.90
16825;DHT22;8529;48.108;-1.706;2022-09-25T07:57:56;15.30;99.90
16825;DHT22;8529;48.108;-1.706;2022-09-25T08:00:23;15.30;99.90
16825;DHT22;8529;48.108;-1.706;2022-09-25T08:02:57;15.20;99.90
16825;DHT22;8529;48.108;-1.706;2022-09-25T08:05:26;15.20;99.90
16825;DHT22;8529;48.108;-1.706;2022-09-25T08:07:53;15.20;99.90
16825;DHT22;8529;48.108;-1.706;2022-09-25T08:10:20;15.20;99.90
16825;DHT22;8529;48.108;-1.706;2022-09-25T08:12:47;15.20;99.90
16825;DHT22;8529;48.108;-1.706;2022-09-25T08:15:15;15.20;99.90
16825;DHT22;8529;48.108;-1.706;2022-09-25T08:17:42;15.20;99.90
16825;DHT22;8529;48.108;-1.706;2022-09-25T08:20:09;15.20;99.90
16825;DHT22;8529;48.108;-1.706;2022-09-25T08:22:37;15.20;99.90
16825;DHT22;8529;48.108;-1.706;2022-09-25T08:25:05;15.20;99.90
16825;DHT22;8529;48.108;-1.706;2022-09-25T08:27:34;15.20;99.90
16825;DHT22;8529;48.108;-1.706;2022-09-25T08:30:06;15.20;99.90
16825;DHT22;8529;48.108;-1.706;2022-09-25T08:32:33;15.30;99.90
16825;DHT22;8529;48.108;-1.706;2022-09-25T08:35:01;15.30;99.90
16825;DHT22;8529;48.108;-1.706;2022-09-25T08:37:28;15.40;99.90
16825;DHT22;8529;48.108;-1.706;2022-09-25T08:39:57;15.50;99.90
16825;DHT22;8529;48.108;-1.706;2022-09-25T08:42:28;15.50;99.90
16825;DHT22;8529;48.108;-1.706;2022-09-25T08:44:58;15.60;99.90
16825;DHT22;8529;48.108;-1.706;2022-09-25T08:47:40;15.70;99.90
16825;DHT22;8529;48.108;-1.706;2022-09-25T08:50:26;15.80;99.90
16825;DHT22;8529;48.108;-1.706;2022-09-25T08:52:59;15.90;99.90
16825;DHT22;8529;48.108;-1.706;2022-09-25T08:55:32;15.90;99.90
16825;DHT22;8529;48.108;-1.706;2022-09-25T08:58:18;16.00;99.90
16825;DHT22;8529;48.108;-1.706;2022-09-25T09:00:47;16.10;99.90
16825;DHT22;8529;48.108;-1.706;2022-09-25T09:03:15;16.10;99.90
16825;DHT22;8529;48.108;-1.706;2022-09-25T09:05:43;16.20;99.90
16825;DHT22;8529;48.108;-1.706;2022-09-25T09:08:14;16.20;99.90
16825;DHT22;8529;48.108;-1.706;2022-09-25T09:10:45;16.20;99.90
16825;DHT22;8529;48.108;-1.706;2022-09-25T09:13:16;16.30;99.90
16825;DHT22;8529;48.108;-1.706;2022-09-25T09:15:51;16.40;99.90
16825;DHT22;8529;48.108;-1.706;2022-09-25T09:18:22;16.50;99.90
16825;DHT22;8529;48.108;-1.706;2022-09-25T09:20:51;16.60;99.90
16825;DHT22;8529;48.108;-1.706;2022-09-25T09:23:20;16.70;99.90
16825;DHT22;8529;48.108;-1.706;2022-09-25T09:25:56;16.70;99.90
16825;DHT22;8529;48.108;-1.706;2022-09-25T09:31:39;16.60;99.90
16825;DHT22;8529;48.108;-1.706;2022-09-25T09:34:24;16.50;99.90
16825;DHT22;8529;48.108;-1.706;2022-09-25T09:37:00;16.50;99.90
16825;DHT22;8529;48.108;-1.706;2022-09-25T09:39:33;16.40;99.90
16825;DHT22;8529;48.108;-1.706;2022-09-25T09:42:08;16.30;99.90
16825;DHT22;8529;48.108;-1.706;2022-09-25T09:44:49;16.30;99.90
16825;DHT22;8529;48.108;-1.706;2022-09-25T09:47:34;16.20;99.90
16825;DHT22;8529;48.108;-1.706;2022-09-25T09:50:18;16.30;99.90
16825;DHT22;8529;48.108;-1.706;2022-09-25T09:52:50;16.30;99.90
16825;DHT22;8529;48.108;-1.706;2022-09-25T09:55:22;16.40;99.90
16825;DHT22;8529;48.108;-1.706;2022-09-25T09:57:54;16.50;99.90
16825;DHT22;8529;48.108;-1.706;2022-09-25T10:00:23;16.60;99.90
16825;DHT22;8529;48.108;-1.706;2022-09-25T10:02:53;16.80;99.90
16825;DHT22;8529;48.108;-1.706;2022-09-25T10:05:24;16.90;99.90
16825;DHT22;8529;48.108;-1.706;2022-09-25T10:07:52;16.90;99.90
16825;DHT22;8529;48.108;-1.706;2022-09-25T10:10:20;16.80;99.90
16825;DHT22;8529;48.108;-1.706;2022-09-25T10:12:52;16.80;99.90
16825;DHT22;8529;48.108;-1.706;2022-09-25T10:15:29;16.80;99.90
16825;DHT22;8529;48.108;-1.706;2022-09-25T10:17:59;16.80;99.90
16825;DHT22;8529;48.108;-1.706;2022-09-25T10:20:32;16.80;99.90
16825;DHT22;8529;48.108;-1.706;2022-09-25T10:23:03;16.90;99.90
16825;DHT22;8529;48.108;-1.706;2022-09-25T10:25:36;17.00;99.90
16825;DHT22;8529;48.108;-1.706;2022-09-25T10:28:24;17.00;99.90
16825;DHT22;8529;48.108;-1.706;2022-09-25T10:30:51;17.10;99.90
16825;DHT22;8529;48.108;-1.706;2022-09-25T10:33:20;17.10;99.90
16825;DHT22;8529;48.108;-1.706;2022-09-25T10:35:48;17.30;99.90
16825;DHT22;8529;48.108;-1.706;2022-09-25T10:38:28;17.60;99.90
16825;DHT22;8529;48.108;-1.706;2022-09-25T10:41:00;17.90;99.90
16825;DHT22;8529;48.108;-1.706;2022-09-25T10:43:30;17.90;99.90
16825;DHT22;8529;48.108;-1.706;2022-09-25T10:46:09;17.70;99.90
16825;DHT22;8529;48.108;-1.706;2022-09-25T10:48:37;17.70;99.90
16825;DHT22;8529;48.108;-1.706;2022-09-25T10:51:36;17.60;99.90
16825;DHT22;8529;48.108;-1.706;2022-09-25T10:54:11;17.60;99.90
16825;DHT22;8529;48.108;-1.706;2022-09-25T10:56:39;17.70;99.90
16825;DHT22;8529;48.108;-1.706;2022-09-25T10:59:14;17.80;99.90
16825;DHT22;8529;48.108;-1.706;2022-09-25T11:01:43;17.90;99.90
16825;DHT22;8529;48.108;-1.706;2022-09-25T11:04:15;17.80;99.90
16825;DHT22;8529;48.108;-1.706;2022-09-25T11:06:44;17.70;99.90
16825;DHT22;8529;48.108;-1.706;2022-09-25T11:09:13;17.60;99.90
16825;DHT22;8529;48.108;-1.706;2022-09-25T11:11:43;17.40;99.90
16825;DHT22;8529;48.108;-1.706;2022-09-25T11:14:22;17.40;99.90
16825;DHT22;8529;48.108;-1.706;2022-09-25T11:16:54;17.30;99.90
16825;DHT22;8529;48.108;-1.706;2022-09-25T11:19:25;17.30;99.90
16825;DHT22;8529;48.108;-1.706;2022-09-25T11:22:04;17.30;99.90
16825;DHT22;8529;48.108;-1.706;2022-09-25T11:24:43;17.30;99.90
16825;DHT22;8529;48.108;-1.706;2022-09-25T11:27:19;17.30;99.90
16825;DHT22;8529;48.108;-1.706;2022-09-25T11:29:55;17.20;99.90
16825;DHT22;8529;48.108;-1.706;2022-09-25T11:32:26;17.10;99.90
16825;DHT22;8529;48.108;-1.706;2022-09-25T11:35:10;17.00;99.90
16825;DHT22;8529;48.108;-1.706;2022-09-25T11:37:44;17.00;99.90
16825;DHT22;8529;48.108;-1.706;2022-09-25T11:40:25;16.90;99.90
16825;DHT22;8529;48.108;-1.706;2022-09-25T11:43:14;16.90;99.90
16825;DHT22;8529;48.108;-1.706;2022-09-25T11:45:47;16.90;99.90
16825;DHT22;8529;48.108;-1.706;2022-09-25T11:48:21;16.90;99.90
16825;DHT22;8529;48.108;-1.706;2022-09-25T11:50:56;16.90;99.90
16825;DHT22;8529;48.108;-1.706;2022-09-25T11:53:29;16.90;99.90
16825;DHT22;8529;48.108;-1.706;2022-09-25T11:56:19;16.90;99.90
16825;DHT22;8529;48.108;-1.706;2022-09-25T11:59:03;16.90;99.90
16825;DHT22;8529;48.108;-1.706;2022-09-25T12:01:37;16.90;99.90
16825;DHT22;8529;48.108;-1.706;2022-09-25T12:04:31;17.00;99.90
16825;DHT22;8529;48.108;-1.706;2022-09-25T12:13:15;17.10;99.90
16825;DHT22;8529;48.108;-1.706;2022-09-25T12:15:52;17.10;99.90
16825;DHT22;8529;48.108;-1.706;2022-09-25T12:18:39;17.20;99.90
16825;DHT22;8529;48.108;-1.706;2022-09-25T12:21:11;17.30;99.90
16825;DHT22;8529;48.108;-1.706;2022-09-25T12:23:47;17.30;99.90
16825;DHT22;8529;48.108;-1.706;2022-09-25T12:26:22;17.30;99.90
16825;DHT22;8529;48.108;-1.706;2022-09-25T12:29:08;17.40;99.90
16825;DHT22;8529;48.108;-1.706;2022-09-25T12:31:49;17.40;99.90
16825;DHT22;8529;48.108;-1.706;2022-09-25T12:34:30;17.40;99.90
16825;DHT22;8529;48.108;-1.706;2022-09-25T12:37:09;17.50;99.90
16825;DHT22;8529;48.108;-1.706;2022-09-25T12:39:42;17.50;99.90
16825;DHT22;8529;48.108;-1.706;2022-09-25T12:42:14;17.60;99.90
16825;DHT22;8529;48.108;-1.706;2022-09-25T12:44:47;17.60;99.90
16825;DHT22;8529;48.108;-1.706;2022-09-25T12:47:21;17.70;99.90
16825;DHT22;8529;48.108;-1.706;2022-09-25T12:49:56;17.60;99.90
16825;DHT22;8529;48.108;-1.706;2022-09-25T12:52:27;17.60;99.90
16825;DHT22;8529;48.108;-1.706;2022-09-25T12:54:59;17.60;99.90
16825;DHT22;8529;48.108;-1.706;2022-09-25T12:57:34;17.60;99.90
16825;DHT22;8529;48.108;-1.706;2022-09-25T13:00:04;17.70;99.90
16825;DHT22;8529;48.108;-1.706;2022-09-25T13:02:37;17.70;99.90
16825;DHT22;8529;48.108;-1.706;2022-09-25T13:05:11;17.70;99.90
16825;DHT22;8529;48.108;-1.706;2022-09-25T13:07:44;17.70;99.90
16825;DHT22;8529;48.108;-1.706;2022-09-25T13:10:27;17.70;99.90
16825;DHT22;8529;48.108;-1.706;2022-09-25T13:12:57;17.70;99.90
16825;DHT22;8529;48.108;-1.706;2022-09-25T13:15:29;17.70;99.90
16825;DHT22;8529;48.108;-1.706;2022-09-25T13:17:56;17.70;99.90
16825;DHT22;8529;48.108;-1.706;2022-09-25T13:20:48;17.70;99.90
16825;DHT22;8529;48.108;-1.706;2022-09-25T13:26:08;17.70;99.90
16825;DHT22;8529;48.108;-1.706;2022-09-25T13:28:37;17.70;99.90
16825;DHT22;8529;48.108;-1.706;2022-09-25T13:31:09;17.70;99.90
16825;DHT22;8529;48.108;-1.706;2022-09-25T13:33:46;17.70;99.90
16825;DHT22;8529;48.108;-1.706;2022-09-25T13:36:37;17.70;99.90
16825;DHT22;8529;48.108;-1.706;2022-09-25T13:39:13;17.70;99.90
16825;DHT22;8529;48.108;-1.706;2022-09-25T13:42:04;17.70;99.90
16825;DHT22;8529;48.108;-1.706;2022-09-25T13:44:48;17.70;99.90
16825;DHT22;8529;48.108;-1.706;2022-09-25T13:47:42;17.70;99.90
16825;DHT22;8529;48.108;-1.706;2022-09-25T13:50:32;17.70;99.90
16825;DHT22;8529;48.108;-1.706;2022-09-25T13:53:20;17.70;99.90
16825;DHT22;8529;48.108;-1.706;2022-09-25T13:59:03;17.70;99.90
16825;DHT22;8529;48.108;-1.706;2022-09-25T14:01:35;17.70;99.90
16825;DHT22;8529;48.108;-1.706;2022-09-25T14:04:19;17.70;99.90
16825;DHT22;8529;48.108;-1.706;2022-09-25T14:06:48;17.70;99.90
16825;DHT22;8529;48.108;-1.706;2022-09-25T14:09:21;17.70;99.90
16825;DHT22;8529;48.108;-1.706;2022-09-25T14:11:53;17.70;99.90
16825;DHT22;8529;48.108;-1.706;2022-09-25T14:14:28;17.70;99.90
16825;DHT22;8529;48.108;-1.706;2022-09-25T14:16:56;17.70;99.90
16825;DHT22;8529;48.108;-1.706;2022-09-25T14:19:26;17.70;99.90
16825;DHT22;8529;48.108;-1.706;2022-09-25T14:21:55;17.70;99.90
16825;DHT22;8529;48.108;-1.706;2022-09-25T14:24:26;17.70;99.90
16825;DHT22;8529;48.108;-1.706;2022-09-25T14:26:55;17.70;99.90
16825;DHT22;8529;48.108;-1.706;2022-09-25T14:29:24;17.70;99.90
16825;DHT22;8529;48.108;-1.706;2022-09-25T14:32:03;17.70;99.90
16825;DHT22;8529;48.108;-1.706;2022-09-25T14:34:47;17.70;99.90
16825;DHT22;8529;48.108;-1.706;2022-09-25T14:37:33;17.70;99.90
16825;DHT22;8529;48.108;-1.706;2022-09-25T14:40:15;17.70;99.90
16825;DHT22;8529;48.108;-1.706;2022-09-25T14:43:01;17.60;99.90
16825;DHT22;8529;48.108;-1.706;2022-09-25T14:46:04;17.70;99.90
16825;DHT22;8529;48.108;-1.706;2022-09-25T14:48:36;17.60;99.90
16825;DHT22;8529;48.108;-1.706;2022-09-25T14:51:06;17.60;99.90
16825;DHT22;8529;48.108;-1.706;2022-09-25T14:53:37;17.60;99.90
16825;DHT22;8529;48.108;-1.706;2022-09-25T14:56:07;17.60;99.90
16825;DHT22;8529;48.108;-1.706;2022-09-25T14:58:42;17.60;99.90
16825;DHT22;8529;48.108;-1.706;2022-09-25T15:01:14;17.70;99.90
16825;DHT22;8529;48.108;-1.706;2022-09-25T15:03:44;17.70;99.90
16825;DHT22;8529;48.108;-1.706;2022-09-25T15:06:23;17.70;99.90
16825;DHT22;8529;48.108;-1.706;2022-09-25T15:08:51;17.70;99.90
16825;DHT22;8529;48.108;-1.706;2022-09-25T15:11:20;17.70;99.90
16825;DHT22;8529;48.108;-1.706;2022-09-25T15:13:47;17.70;99.90
16825;DHT22;8529;48.108;-1.706;2022-09-25T15:16:18;17.70;99.90
16825;DHT22;8529;48.108;-1.706;2022-09-25T15:19:07;17.60;99.90
16825;DHT22;8529;48.108;-1.706;2022-09-25T15:21:41;17.60;99.90
16825;DHT22;8529;48.108;-1.706;2022-09-25T15:24:12;17.50;99.90
16825;DHT22;8529;48.108;-1.706;2022-09-25T15:26:45;17.50;99.90
16825;DHT22;8529;48.108;-1.706;2022-09-25T15:29:15;17.40;99.90
16825;DHT22;8529;48.108;-1.706;2022-09-25T15:31:44;17.40;99.90
16825;DHT22;8529;48.108;-1.706;2022-09-25T15:34:19;17.50;99.90
16825;DHT22;8529;48.108;-1.706;2022-09-25T15:36:46;17.50;99.90
16825;DHT22;8529;48.108;-1.706;2022-09-25T15:39:16;17.50;99.90
16825;DHT22;8529;48.108;-1.706;2022-09-25T15:41:47;17.50;99.90
16825;DHT22;8529;48.108;-1.706;2022-09-25T15:44:18;17.60;99.90
16825;DHT22;8529;48.108;-1.706;2022-09-25T15:46:48;17.60;99.90
16825;DHT22;8529;48.108;-1.706;2022-09-25T15:49:18;17.50;99.90
16825;DHT22;8529;48.108;-1.706;2022-09-25T15:51:49;17.50;99.90
16825;DHT22;8529;48.108;-1.706;2022-09-25T15:54:33;17.50;99.90
16825;DHT22;8529;48.108;-1.706;2022-09-25T15:57:05;17.50;99.90
16825;DHT22;8529;48.108;-1.706;2022-09-25T15:59:35;17.50;99.90
16825;DHT22;8529;48.108;-1.706;2022-09-25T16:02:26;17.50;99.90
16825;DHT22;8529;48.108;-1.706;2022-09-25T16:05:13;17.50;99.90
16825;DHT22;8529;48.108;-1.706;2022-09-25T16:07:45;17.40;99.90
16825;DHT22;8529;48.108;-1.706;2022-09-25T16:10:29;17.40;99.90
16825;DHT22;8529;48.108;-1.706;2022-09-25T16:12:59;17.40;99.90
16825;DHT22;8529;48.108;-1.706;2022-09-25T16:15:48;17.40;99.90